Time,TemperatureF,DewpointF,PressureIn,WindDirection,WindDirectionDegrees,WindSpeedMPH,WindSpeedGustMPH,Humidity,HourlyPrecipIn,Conditions,Clouds,dailyrainin,SoftwareType,DateUTC
2013-08-12 00:02:00,58.0,57.0,-100.00,South,180,1.0,1.0,96,-99.99,,,-99.99,,2013-08-12 05:02:00,
2013-08-12 00:32:00,58.0,57.0,-100.00,West,260,0.0,2.0,97,-99.99,,,-99.99,,2013-08-12 05:32:00,
2013-08-12 00:43:00,58.0,57.0,-100.00,West,260,0.0,2.0,97,-99.99,,,-99.99,,2013-08-12 05:43:00,
2013-08-12 00:52:00,58.0,57.0,-100.00,West,260,0.0,2.0,97,-99.99,,,-99.99,,2013-08-12 05:52:00,
2013-08-12 01:01:00,58.0,57.0,-100.00,West,260,0.0,2.0,97,-99.99,,,-99.99,,2013-08-12 06:01:00,
2013-08-12 01:10:00,56.0,55.0,-100.00,North,0,2.0,3.0,97,-99.99,,,-99.99,,2013-08-12 06:10:00,
2013-08-12 01:32:00,56.0,55.0,-100.00,North,0,2.0,3.0,97,-99.99,,,-99.99,,2013-08-12 06:32:00,
2013-08-12 01:42:00,56.0,55.0,-100.00,North,0,2.0,3.0,97,-99.99,,,-99.99,,2013-08-12 06:42:00,
2013-08-12 01:52:00,56.0,55.0,-100.00,North,0,2.0,3.0,97,-99.99,,,-99.99,,2013-08-12 06:52:00,
2013-08-12 02:01:00,56.0,55.0,-100.00,North,0,2.0,3.0,97,-99.99,,,-99.99,,2013-08-12 07:01:00,
2013-08-12 02:10:00,57.0,56.0,-100.00,NNE,15,1.0,1.0,97,-99.99,,,-99.99,,2013-08-12 07:10:00,
2013-08-12 02:33:00,57.0,56.0,-100.00,NNE,15,1.0,1.0,97,-99.99,,,-99.99,,2013-08-12 07:33:00,
2013-08-12 02:43:00,57.0,56.0,-100.00,NNE,15,1.0,1.0,97,-99.99,,,-99.99,,2013-08-12 07:43:00,
2013-08-12 02:52:00,57.0,56.0,-100.00,NNE,15,1.0,1.0,97,-99.99,,,-99.99,,2013-08-12 07:52:00,
2013-08-12 03:02:00,57.0,56.0,-100.00,NNE,15,1.0,1.0,97,-99.99,,,-99.99,,2013-08-12 08:02:00,
2013-08-12 03:11:00,56.0,55.0,-100.00,SSE,160,0.0,2.0,97,-99.99,,,-99.99,,2013-08-12 08:11:00,
2013-08-12 03:33:00,56.0,55.0,-100.00,SSE,160,0.0,2.0,97,-99.99,,,-99.99,,2013-08-12 08:33:00,
2013-08-12 03:43:00,56.0,55.0,-100.00,SSE,160,0.0,2.0,97,-99.99,,,-99.99,,2013-08-12 08:43:00,
2013-08-12 03:53:00,56.0,55.0,-100.00,SSE,160,0.0,2.0,97,-99.99,,,-99.99,,2013-08-12 08:53:00,
2013-08-12 04:02:00,56.0,55.0,-100.00,SSE,160,0.0,2.0,97,-99.99,,,-99.99,,2013-08-12 09:02:00,
2013-08-12 04:10:00,56.0,55.0,-100.00,NNW,345,2.0,3.0,97,-99.99,,,-99.99,,2013-08-12 09:10:00,
2013-08-12 04:32:00,56.0,55.0,-100.00,NNW,345,2.0,3.0,97,-99.99,,,-99.99,,2013-08-12 09:32:00,
2013-08-12 04:43:00,56.0,55.0,-100.00,NNW,345,2.0,3.0,97,-99.99,,,-99.99,,2013-08-12 09:43:00,
2013-08-12 04:53:00,56.0,55.0,-100.00,NNW,345,2.0,3.0,97,-99.99,,,-99.99,,2013-08-12 09:53:00,
2013-08-12 05:02:00,56.0,55.0,-100.00,NNW,345,2.0,3.0,97,-99.99,,,-99.99,,2013-08-12 10:02:00,
2013-08-12 05:10:00,55.0,54.0,-100.00,NW,315,0.0,2.0,97,-99.99,,,-99.99,,2013-08-12 10:10:00,
2013-08-12 05:32:00,55.0,54.0,-100.00,NW,315,0.0,2.0,97,-99.99,,,-99.99,,2013-08-12 10:32:00,
2013-08-12 05:43:00,55.0,54.0,-100.00,NW,315,0.0,2.0,97,-99.99,,,-99.99,,2013-08-12 10:43:00,
2013-08-12 05:52:00,55.0,54.0,-100.00,NW,315,0.0,2.0,97,-99.99,,,-99.99,,2013-08-12 10:52:00,
2013-08-12 06:02:00,55.0,54.0,-100.00,NW,315,0.0,2.0,97,-99.99,,,-99.99,,2013-08-12 11:02:00,
2013-08-12 06:32:00,55.0,54.0,-100.00,WNW,290,0.0,0.0,97,-99.99,,,-99.99,,2013-08-12 11:32:00,
2013-08-12 06:43:00,55.0,54.0,-100.00,WNW,290,0.0,0.0,97,-99.99,,,-99.99,,2013-08-12 11:43:00,
2013-08-12 06:53:00,55.0,54.0,-100.00,WNW,290,0.0,0.0,97,-99.99,,,-99.99,,2013-08-12 11:53:00,
2013-08-12 07:02:00,55.0,54.0,-100.00,WNW,290,0.0,0.0,97,-99.99,,,-99.99,,2013-08-12 12:02:00,
2013-08-12 07:32:00,56.0,55.0,-100.00,South,180,1.0,2.0,97,-99.99,,,-99.99,,2013-08-12 12:32:00,
2013-08-12 07:43:00,56.0,55.0,-100.00,South,180,1.0,2.0,97,-99.99,,,-99.99,,2013-08-12 12:43:00,
2013-08-12 07:52:00,56.0,55.0,-100.00,South,180,1.0,2.0,97,-99.99,,,-99.99,,2013-08-12 12:52:00,
2013-08-12 08:02:00,56.0,55.0,-100.00,South,180,1.0,2.0,97,-99.99,,,-99.99,,2013-08-12 13:02:00,
2013-08-12 08:11:00,56.0,55.0,-100.00,South,180,1.0,2.0,97,-99.99,,,-99.99,,2013-08-12 13:11:00,
2013-08-12 08:33:00,59.0,58.0,-100.00,South,190,1.0,2.0,97,-99.99,,,-99.99,,2013-08-12 13:33:00,
2013-08-12 08:43:00,59.0,58.0,-100.00,South,190,1.0,2.0,97,-99.99,,,-99.99,,2013-08-12 13:43:00,
2013-08-12 08:53:00,59.0,58.0,-100.00,South,190,1.0,2.0,97,-99.99,,,-99.99,,2013-08-12 13:53:00,
2013-08-12 09:02:00,59.0,58.0,-100.00,South,190,1.0,2.0,97,-99.99,,,-99.99,,2013-08-12 14:02:00,
2013-08-12 09:11:00,59.0,58.0,-100.00,South,190,1.0,2.0,97,-99.99,,,-99.99,,2013-08-12 14:11:00,
2013-08-12 09:32:00,62.0,61.0,-100.00,SSE,150,1.0,3.0,97,-99.99,,,-99.99,,2013-08-12 14:32:00,
2013-08-12 09:42:00,62.0,61.0,-100.00,SSE,150,1.0,3.0,97,-99.99,,,-99.99,,2013-08-12 14:42:00,
2013-08-12 09:53:00,62.0,61.0,-100.00,SSE,150,1.0,3.0,97,-99.99,,,-99.99,,2013-08-12 14:53:00,
2013-08-12 10:02:00,62.0,61.0,-100.00,SSE,150,1.0,3.0,97,-99.99,,,-99.99,,2013-08-12 15:02:00,
2013-08-12 10:10:00,65.0,64.0,-100.00,SW,225,1.0,3.0,97,-99.99,,,-99.99,,2013-08-12 15:10:00,
2013-08-12 10:33:00,65.0,64.0,-100.00,SW,225,1.0,3.0,97,-99.99,,,-99.99,,2013-08-12 15:33:00,
2013-08-12 10:43:00,65.0,64.0,-100.00,SW,225,1.0,3.0,97,-99.99,,,-99.99,,2013-08-12 15:43:00,
2013-08-12 10:52:00,65.0,64.0,-100.00,SW,225,1.0,3.0,97,-99.99,,,-99.99,,2013-08-12 15:52:00,
2013-08-12 11:01:00,65.0,64.0,-100.00,SW,225,1.0,3.0,97,-99.99,,,-99.99,,2013-08-12 16:01:00,
2013-08-12 11:33:00,72.0,69.0,-100.00,NE,45,2.0,6.0,88,-99.99,,,-99.99,,2013-08-12 16:33:00,
2013-08-12 11:43:00,72.0,69.0,-100.00,NE,45,2.0,6.0,88,-99.99,,,-99.99,,2013-08-12 16:43:00,
2013-08-12 11:53:00,72.0,69.0,-100.00,NE,45,2.0,6.0,88,-99.99,,,-99.99,,2013-08-12 16:53:00,
2013-08-12 12:02:00,72.0,69.0,-100.00,NE,45,2.0,6.0,88,-99.99,,,-99.99,,2013-08-12 17:02:00,
2013-08-12 12:32:00,75.0,60.0,-100.00,WNW,290,2.0,6.0,59,-99.99,,,-99.99,,2013-08-12 17:32:00,
2013-08-12 12:43:00,75.0,60.0,-100.00,WNW,290,2.0,6.0,59,-99.99,,,-99.99,,2013-08-12 17:43:00,
2013-08-12 12:52:00,75.0,60.0,-100.00,WNW,290,2.0,6.0,59,-99.99,,,-99.99,,2013-08-12 17:52:00,
2013-08-12 13:02:00,75.0,60.0,-100.00,WNW,290,2.0,6.0,59,-99.99,,,-99.99,,2013-08-12 18:02:00,
2013-08-12 13:11:00,75.0,57.0,-100.00,NW,320,7.0,15.0,55,-99.99,,,-99.99,,2013-08-12 18:11:00,
2013-08-12 13:32:00,75.0,57.0,-100.00,NW,320,7.0,15.0,55,-99.99,,,-99.99,,2013-08-12 18:32:00,
2013-08-12 13:43:00,75.0,57.0,-100.00,NW,320,7.0,15.0,55,-99.99,,,-99.99,,2013-08-12 18:43:00,
2013-08-12 13:52:00,75.0,57.0,-100.00,NW,320,7.0,15.0,55,-99.99,,,-99.99,,2013-08-12 18:52:00,
2013-08-12 14:02:00,75.0,57.0,-100.00,NW,320,7.0,15.0,55,-99.99,,,-99.99,,2013-08-12 19:02:00,
2013-08-12 14:11:00,78.0,52.0,-100.00,NNW,330,9.0,14.0,41,-99.99,,,-99.99,,2013-08-12 19:11:00,
2013-08-12 14:33:00,78.0,52.0,-100.00,NNW,330,9.0,14.0,41,-99.99,,,-99.99,,2013-08-12 19:33:00,
2013-08-12 14:43:00,78.0,52.0,-100.00,NNW,330,9.0,14.0,41,-99.99,,,-99.99,,2013-08-12 19:43:00,
2013-08-12 14:52:00,78.0,52.0,-100.00,NNW,330,9.0,14.0,41,-99.99,,,-99.99,,2013-08-12 19:52:00,
2013-08-12 15:02:00,78.0,52.0,-100.00,NNW,330,9.0,14.0,41,-99.99,,,-99.99,,2013-08-12 20:02:00,
2013-08-12 16:11:00,78.0,47.0,-100.00,NNW,335,9.0,19.0,33,-99.99,,,-99.99,,2013-08-12 21:11:00,
2013-08-12 16:12:00,79.0,48.0,-100.00,NW,320,7.0,14.0,34,-99.99,,,-99.99,,2013-08-12 21:12:00,
2013-08-12 16:32:00,78.0,47.0,-100.00,NNW,335,9.0,19.0,33,-99.99,,,-99.99,,2013-08-12 21:32:00,
2013-08-12 16:43:00,78.0,47.0,-100.00,NNW,335,9.0,19.0,33,-99.99,,,-99.99,,2013-08-12 21:43:00,
2013-08-12 16:52:00,78.0,47.0,-100.00,NNW,335,9.0,19.0,33,-99.99,,,-99.99,,2013-08-12 21:52:00,
2013-08-12 17:02:00,78.0,47.0,-100.00,NNW,335,9.0,19.0,33,-99.99,,,-99.99,,2013-08-12 22:02:00,
2013-08-12 17:11:00,78.0,47.0,-100.00,NW,310,8.0,14.0,34,-99.99,,,-99.99,,2013-08-12 22:11:00,
2013-08-12 17:32:00,78.0,47.0,-100.00,NW,310,8.0,14.0,34,-99.99,,,-99.99,,2013-08-12 22:32:00,
2013-08-12 17:43:00,78.0,47.0,-100.00,NW,310,8.0,14.0,34,-99.99,,,-99.99,,2013-08-12 22:43:00,
2013-08-12 17:53:00,78.0,47.0,-100.00,NW,310,8.0,14.0,34,-99.99,,,-99.99,,2013-08-12 22:53:00,
2013-08-12 18:02:00,78.0,47.0,-100.00,NW,310,8.0,14.0,34,-99.99,,,-99.99,,2013-08-12 23:02:00,
2013-08-12 18:11:00,76.0,48.0,-100.00,NW,315,7.0,11.0,37,-99.99,,,-99.99,,2013-08-12 23:11:00,
2013-08-12 18:43:00,76.0,48.0,-100.00,NW,315,7.0,11.0,37,-99.99,,,-99.99,,2013-08-12 23:43:00,
2013-08-12 18:53:00,76.0,48.0,-100.00,NW,315,7.0,11.0,37,-99.99,,,-99.99,,2013-08-12 23:53:00,
2013-08-12 19:03:00,76.0,48.0,-100.00,NW,315,7.0,11.0,37,-99.99,,,-99.99,,2013-08-13 00:03:00,
2013-08-12 19:10:00,73.0,48.0,-100.00,WNW,300,3.0,6.0,41,-99.99,,,-99.99,,2013-08-13 00:10:00,
2013-08-12 19:45:00,73.0,48.0,-100.00,WNW,300,3.0,6.0,41,-99.99,,,-99.99,,2013-08-13 00:45:00,
2013-08-12 19:54:00,73.0,48.0,-100.00,WNW,300,3.0,6.0,41,-99.99,,,-99.99,,2013-08-13 00:54:00,
2013-08-12 20:03:00,73.0,48.0,-100.00,WNW,300,3.0,6.0,41,-99.99,,,-99.99,,2013-08-13 01:03:00,
2013-08-12 20:10:00,66.0,53.0,-100.00,North,0,6.0,12.0,63,-99.99,,,-99.99,,2013-08-13 01:10:00,
2013-08-12 20:42:00,66.0,53.0,-100.00,North,0,6.0,12.0,63,-99.99,,,-99.99,,2013-08-13 01:42:00,
2013-08-12 20:55:00,66.0,53.0,-100.00,North,0,6.0,12.0,63,-99.99,,,-99.99,,2013-08-13 01:55:00,
2013-08-12 21:02:00,66.0,53.0,-100.00,North,0,6.0,12.0,63,-99.99,,,-99.99,,2013-08-13 02:02:00,
2013-08-12 21:10:00,65.0,56.0,-100.00,North,0,6.0,9.0,75,-99.99,,,-99.99,,2013-08-13 02:10:00,
2013-08-12 21:43:00,65.0,56.0,-100.00,North,0,6.0,9.0,75,-99.99,,,-99.99,,2013-08-13 02:43:00,
2013-08-12 21:52:00,65.0,56.0,-100.00,North,0,6.0,9.0,75,-99.99,,,-99.99,,2013-08-13 02:52:00,
2013-08-12 22:02:00,65.0,56.0,-100.00,North,0,6.0,9.0,75,-99.99,,,-99.99,,2013-08-13 03:02:00,
2013-08-12 22:43:00,62.0,56.0,-100.00,North,0,7.0,14.0,80,-99.99,,,-99.99,,2013-08-13 03:43:00,
2013-08-12 22:54:00,62.0,56.0,-100.00,North,0,7.0,14.0,80,-99.99,,,-99.99,,2013-08-13 03:54:00,
2013-08-12 23:03:00,62.0,56.0,-100.00,North,0,7.0,14.0,80,-99.99,,,-99.99,,2013-08-13 04:03:00,
2013-08-12 23:10:00,58.0,54.0,-100.00,North,0,6.0,9.0,86,-99.99,,,-99.99,,2013-08-13 04:10:00,
2013-08-12 23:42:00,58.0,54.0,-100.00,North,0,6.0,9.0,86,-99.99,,,-99.99,,2013-08-13 04:42:00,
2013-08-12 23:53:00,58.0,54.0,-100.00,North,0,6.0,9.0,86,-99.99,,,-99.99,,2013-08-13 04:53:00,